createdAt,value
2023-03-28T00:01:02.774Z,3.90
2023-03-28T00:02:05.743Z,3.83
2023-03-28T00:03:08.938Z,4.30
2023-03-28T00:04:12.975Z,2.95
2023-03-28T00:05:17.711Z,3.05
2023-03-28T00:06:22.309Z,3.25
2023-03-28T00:07:25.158Z,3.55
2023-03-28T00:08:29.157Z,2.75
2023-03-28T00:09:31.950Z,1.77
2023-03-28T00:10:34.620Z,2.35
2023-03-28T00:11:37.337Z,3.72
2023-03-28T00:12:41.041Z,2.28
2023-03-28T00:13:43.770Z,3.53
2023-03-28T00:14:46.516Z,1.70
2023-03-28T00:15:53.320Z,3.67
2023-03-28T00:16:57.634Z,2.75
2023-03-28T00:18:01.380Z,1.80
2023-03-28T00:19:07.526Z,2.65
2023-03-28T00:20:13.049Z,3.30
2023-03-28T00:21:25.084Z,3.75
2023-03-28T00:22:30.670Z,2.25
2023-03-28T00:23:35.649Z,2.10
2023-03-28T00:24:39.131Z,1.87
2023-03-28T00:25:42.167Z,1.95
2023-03-28T00:26:45.872Z,3.58
2023-03-28T00:27:49.758Z,1.27
2023-03-28T00:28:54.884Z,2.45
2023-03-28T00:29:58.488Z,3.45
2023-03-28T00:31:10.533Z,2.72
2023-03-28T00:32:13.259Z,2.53
2023-03-28T00:33:16.130Z,2.05
2023-03-28T00:34:18.982Z,1.85
2023-03-28T00:35:21.791Z,3.00
2023-03-28T00:36:29.901Z,2.78
2023-03-28T00:37:34.587Z,2.83
2023-03-28T00:38:38.919Z,1.95
2023-03-28T00:39:41.603Z,3.85
2023-03-28T00:40:46.497Z,2.40
2023-03-28T00:41:49.599Z,4.95
2023-03-28T00:42:52.991Z,3.50
2023-03-28T00:43:56.085Z,3.47
2023-03-28T00:44:58.761Z,4.45
2023-03-28T00:46:09.082Z,2.62
2023-03-28T00:47:39.167Z,4.15
2023-03-28T00:49:21.558Z,3.30
2023-03-28T00:50:24.762Z,3.00
2023-03-28T00:51:32.346Z,2.37
2023-03-28T00:52:40.721Z,6.85
2023-03-28T00:53:43.627Z,1.77
2023-03-28T00:54:46.903Z,2.30
2023-03-28T00:55:57.712Z,2.28
2023-03-28T00:57:03.233Z,2.70
2023-03-28T00:58:11.569Z,3.10
2023-03-28T00:59:19.086Z,3.37
2023-03-28T01:00:23.467Z,3.17
2023-03-28T01:01:27.393Z,3.17
2023-03-28T01:02:30.713Z,2.72
2023-03-28T01:03:35.873Z,1.48
2023-03-28T01:04:49.754Z,2.17
2023-03-28T01:05:52.609Z,4.28
2023-03-28T01:06:59.302Z,2.15
2023-03-28T01:08:09.952Z,4.53
2023-03-28T01:09:15.135Z,2.70
2023-03-28T01:10:18.492Z,3.22
2023-03-28T01:11:21.832Z,2.80
2023-03-28T01:12:25.032Z,1.42
2023-03-28T01:13:33.158Z,2.70
2023-03-28T01:14:39.392Z,1.70
2023-03-28T01:15:43.331Z,1.95
2023-03-28T01:16:47.956Z,3.67
2023-03-28T01:17:51.192Z,3.70
2023-03-28T01:18:57.256Z,2.45
2023-03-28T01:20:09.260Z,3.95
2023-03-28T01:21:35.805Z,2.95
2023-03-28T01:23:03.035Z,3.33
2023-03-28T01:24:27.478Z,1.83
2023-03-28T01:25:38.774Z,2.60
2023-03-28T01:28:06.000Z,2.47
2023-03-28T01:29:17.676Z,3.22
2023-03-28T01:30:51.861Z,6.18
2023-03-28T01:32:19.571Z,2.15
2023-03-28T01:33:50.516Z,3.40
2023-03-28T01:35:22.550Z,3.10
2023-03-28T01:37:03.405Z,3.67
2023-03-28T01:38:24.484Z,1.90
2023-03-28T01:39:45.821Z,2.47
2023-03-28T01:41:31.017Z,3.55
2023-03-28T01:43:01.729Z,3.33
2023-03-28T01:44:08.997Z,2.47
2023-03-28T01:45:29.060Z,2.25
2023-03-28T01:46:51.774Z,1.65
2023-03-28T01:48:03.417Z,2.03
2023-03-28T01:49:32.651Z,4.50
2023-03-28T01:50:59.178Z,3.17
2023-03-28T01:52:34.279Z,3.87
2023-03-28T01:54:09.467Z,4.07
2023-03-28T01:55:42.456Z,2.37
2023-03-28T01:56:54.392Z,2.65
2023-03-28T01:59:07.033Z,4.10
2023-03-28T02:00:13.817Z,2.72
2023-03-28T02:01:37.060Z,4.22
2023-03-28T02:02:51.648Z,2.22
2023-03-28T02:04:00.441Z,3.10
2023-03-28T02:05:09.123Z,2.87
2023-03-28T02:06:12.854Z,2.90
2023-03-28T02:07:19.067Z,3.28
2023-03-28T02:08:28.361Z,3.65
2023-03-28T02:09:34.965Z,3.90
2023-03-28T02:10:41.464Z,4.53
2023-03-28T02:11:46.456Z,3.37
2023-03-28T02:12:54.444Z,3.62
2023-03-28T02:14:04.874Z,2.35
2023-03-28T02:15:12.635Z,3.03
2023-03-28T02:16:17.033Z,2.40
2023-03-28T02:17:23.329Z,3.53
2023-03-28T02:18:37.885Z,3.40
2023-03-28T02:19:42.606Z,4.12
2023-03-28T02:20:50.362Z,1.58
2023-03-28T02:22:23.062Z,4.78
2023-03-28T02:23:42.744Z,5.30
2023-03-28T02:24:50.920Z,7.07
2023-03-28T02:25:53.926Z,3.40
2023-03-28T02:26:57.151Z,2.85
2023-03-28T02:28:05.675Z,3.05
2023-03-28T02:29:09.581Z,3.83
2023-03-28T02:30:12.816Z,5.18
2023-03-28T02:31:18.910Z,4.65
2023-03-28T02:32:22.605Z,4.15
2023-03-28T02:33:39.138Z,4.25
2023-03-28T02:34:45.018Z,2.97
2023-03-28T02:36:00.083Z,3.72
2023-03-28T02:37:10.491Z,3.78
2023-03-28T02:38:31.815Z,4.12
2023-03-28T02:39:40.208Z,4.30
2023-03-28T02:41:04.014Z,4.20
2023-03-28T02:42:38.143Z,4.55
2023-03-28T02:43:55.639Z,2.70
2023-03-28T02:45:16.818Z,7.37
2023-03-28T02:46:24.826Z,7.50
2023-03-28T02:47:57.004Z,3.03
2023-03-28T02:49:26.855Z,6.60
2023-03-28T02:50:50.099Z,3.97
2023-03-28T02:52:15.276Z,4.47
2023-03-28T02:53:39.790Z,4.15
2023-03-28T02:54:42.420Z,8.20
2023-03-28T02:55:51.712Z,5.80
2023-03-28T02:57:19.756Z,3.53
2023-03-28T02:58:34.392Z,5.10
2023-03-28T02:59:46.619Z,5.85
2023-03-28T03:00:49.487Z,4.87
2023-03-28T03:01:53.101Z,4.78
2023-03-28T03:02:57.444Z,3.40
2023-03-28T03:04:01.409Z,4.80
2023-03-28T03:05:04.683Z,5.68
2023-03-28T03:06:08.357Z,5.12
2023-03-28T03:07:11.277Z,6.07
2023-03-28T03:08:15.904Z,5.62
2023-03-28T03:09:23.253Z,4.18
2023-03-28T03:10:26.065Z,4.22
2023-03-28T03:11:29.235Z,6.40
2023-03-28T03:12:32.014Z,4.25
2023-03-28T03:13:34.877Z,4.75
2023-03-28T03:14:39.094Z,3.08
2023-03-28T03:15:42.741Z,4.95
2023-03-28T03:16:45.908Z,3.80
2023-03-28T03:17:48.805Z,4.93
2023-03-28T03:18:57.487Z,5.15
2023-03-28T03:20:06.731Z,6.55
2023-03-28T03:21:11.125Z,4.78
2023-03-28T03:22:21.233Z,5.05
2023-03-28T03:23:24.236Z,5.53
2023-03-28T03:24:28.551Z,5.22
2023-03-28T03:25:31.516Z,6.00
2023-03-28T03:26:34.262Z,6.45
2023-03-28T03:27:38.495Z,5.85
2023-03-28T03:28:42.151Z,3.85
2023-03-28T03:29:45.072Z,4.68
2023-03-28T03:30:47.794Z,6.05
2023-03-28T03:31:51.101Z,5.68
2023-03-28T03:32:53.884Z,4.62
2023-03-28T03:33:56.718Z,5.78
2023-03-28T03:34:59.387Z,3.53
2023-03-28T03:36:02.494Z,4.12
2023-03-28T03:37:05.516Z,5.45
2023-03-28T03:38:09.395Z,4.45
2023-03-28T03:39:14.987Z,6.57
2023-03-28T03:40:18.978Z,7.35
2023-03-28T03:41:21.747Z,7.22
2023-03-28T03:42:24.511Z,6.45
2023-03-28T03:43:28.035Z,7.53
2023-03-28T03:44:30.702Z,7.35
2023-03-28T03:45:33.546Z,4.53
2023-03-28T03:46:36.622Z,4.05
2023-03-28T03:47:39.668Z,7.60
2023-03-28T03:48:49.205Z,4.32
2023-03-28T03:49:52.486Z,5.25
2023-03-28T03:50:55.211Z,4.35
2023-03-28T03:51:58.034Z,4.30
2023-03-28T03:53:01.073Z,7.18
2023-03-28T03:54:03.988Z,3.65
2023-03-28T03:55:07.727Z,6.87
2023-03-28T03:56:11.244Z,4.60
2023-03-28T03:57:14.142Z,8.10
2023-03-28T03:58:20.356Z,6.35
2023-03-28T03:59:24.539Z,5.20
2023-03-28T04:00:28.842Z,6.70
2023-03-28T04:01:32.260Z,5.32
2023-03-28T04:02:35.136Z,4.45
2023-03-28T04:03:38.010Z,6.43
2023-03-28T04:04:40.929Z,7.78
2023-03-28T04:05:43.747Z,6.87
2023-03-28T04:06:46.534Z,5.07
2023-03-28T04:07:49.442Z,5.87
2023-03-28T04:08:52.541Z,5.07
2023-03-28T04:09:55.461Z,6.05
2023-03-28T04:10:58.267Z,5.55
2023-03-28T04:12:01.055Z,4.65
2023-03-28T04:13:04.189Z,7.20
2023-03-28T04:14:07.018Z,6.25
2023-03-28T04:15:10.436Z,4.70
2023-03-28T04:16:13.957Z,7.78
2023-03-28T04:17:16.725Z,4.10
2023-03-28T04:18:20.748Z,5.97
2023-03-28T04:19:25.923Z,5.25
2023-03-28T04:20:31.939Z,4.70
2023-03-28T04:21:35.464Z,5.20
2023-03-28T04:22:45.483Z,4.68
2023-03-28T04:23:49.260Z,4.20
2023-03-28T04:24:53.672Z,4.50
2023-03-28T04:26:01.665Z,5.97
2023-03-28T04:27:05.952Z,6.75
2023-03-28T04:28:09.969Z,4.32
2023-03-28T04:29:13.772Z,5.70
2023-03-28T04:30:18.316Z,7.82
2023-03-28T04:31:22.697Z,5.15
2023-03-28T04:32:25.554Z,5.72
2023-03-28T04:33:34.179Z,4.93
2023-03-28T04:34:38.913Z,6.20
2023-03-28T04:35:42.360Z,6.22
2023-03-28T04:36:45.193Z,7.60
2023-03-28T04:37:49.509Z,6.65
2023-03-28T04:38:54.118Z,5.50
2023-03-28T04:39:56.972Z,6.05
2023-03-28T04:40:59.850Z,4.57
2023-03-28T04:42:05.627Z,5.57
2023-03-28T04:43:12.163Z,5.10
2023-03-28T04:44:14.983Z,6.37
2023-03-28T04:45:19.108Z,9.68
2023-03-28T04:46:21.930Z,5.90
2023-03-28T04:47:25.671Z,5.22
2023-03-28T04:48:28.681Z,4.30
2023-03-28T04:49:32.135Z,5.18
2023-03-28T04:50:35.940Z,4.55
2023-03-28T04:51:38.987Z,4.87
2023-03-28T04:52:41.779Z,6.43
2023-03-28T04:53:44.580Z,5.70
2023-03-28T04:54:47.990Z,5.72
2023-03-28T04:55:50.996Z,5.90
2023-03-28T04:56:53.842Z,6.30
2023-03-28T04:57:56.670Z,7.35
2023-03-28T04:59:00.649Z,6.28
2023-03-28T05:00:07.515Z,5.22
2023-03-28T05:01:13.825Z,4.68
2023-03-28T05:02:16.872Z,4.37
2023-03-28T05:03:24.819Z,4.60
2023-03-28T05:04:28.097Z,5.87
2023-03-28T05:05:31.596Z,4.82
2023-03-28T05:06:34.280Z,5.00
2023-03-28T05:07:37.156Z,4.95
2023-03-28T05:08:40.022Z,6.10
2023-03-28T05:09:42.872Z,7.18
2023-03-28T05:10:47.063Z,4.72
2023-03-28T05:11:50.057Z,5.18
2023-03-28T05:12:53.088Z,5.87
2023-03-28T05:13:56.660Z,10.32
2023-03-28T05:14:59.362Z,6.68
2023-03-28T05:16:02.366Z,5.55
2023-03-28T05:17:05.307Z,6.90
2023-03-28T05:18:09.502Z,5.97
2023-03-28T05:19:14.039Z,6.07
2023-03-28T05:20:18.859Z,7.15
2023-03-28T05:21:23.561Z,4.82
2023-03-28T05:22:27.047Z,6.07
2023-03-28T05:23:29.725Z,7.53
2023-03-28T05:24:33.331Z,3.60
2023-03-28T05:25:37.346Z,5.18
2023-03-28T05:26:40.509Z,4.87
2023-03-28T05:27:43.139Z,5.00
2023-03-28T05:28:50.044Z,4.07
2023-03-28T05:29:53.010Z,5.68
2023-03-28T05:30:55.629Z,4.82
2023-03-28T05:31:58.365Z,4.30
2023-03-28T05:33:01.738Z,4.72
2023-03-28T05:34:04.579Z,4.82
2023-03-28T05:35:09.714Z,4.07
2023-03-28T05:36:13.169Z,3.87
2023-03-28T05:37:16.187Z,3.67
2023-03-28T05:38:22.083Z,5.12
2023-03-28T05:39:25.786Z,5.22
2023-03-28T05:40:28.441Z,4.70
2023-03-28T05:41:31.284Z,4.18
2023-03-28T05:42:36.186Z,6.20
2023-03-28T05:43:39.069Z,5.65
2023-03-28T05:44:41.854Z,7.12
2023-03-28T05:45:44.705Z,7.55
2023-03-28T05:46:47.409Z,6.35
2023-03-28T05:47:55.773Z,4.82
2023-03-28T05:48:59.282Z,4.47
2023-03-28T05:50:03.217Z,4.32
2023-03-28T05:51:06.510Z,5.10
2023-03-28T05:52:09.213Z,8.52
2023-03-28T05:53:12.118Z,5.57
2023-03-28T05:54:14.779Z,3.50
2023-03-28T05:55:17.478Z,5.65
2023-03-28T05:56:21.257Z,5.45
2023-03-28T05:57:25.361Z,6.35
2023-03-28T05:58:29.816Z,5.60
2023-03-28T05:59:33.170Z,5.32
2023-03-28T06:00:35.920Z,4.97
2023-03-28T06:01:40.781Z,7.30
2023-03-28T06:02:46.172Z,5.10
2023-03-28T06:03:49.663Z,5.18
2023-03-28T06:05:56.910Z,5.07
2023-03-28T06:07:00.966Z,4.18
2023-03-28T06:08:05.588Z,6.37
2023-03-28T06:09:10.996Z,6.00
2023-03-28T06:10:15.736Z,6.32
2023-03-28T06:11:20.436Z,5.37
2023-03-28T06:12:23.140Z,6.20
2023-03-28T06:13:26.164Z,5.72
2023-03-28T06:14:30.049Z,5.75
2023-03-28T06:15:33.071Z,5.87
2023-03-28T06:16:36.808Z,4.37
2023-03-28T06:17:39.882Z,5.28
2023-03-28T06:18:49.401Z,6.95
2023-03-28T06:19:52.673Z,6.68
2023-03-28T06:20:55.509Z,4.22
2023-03-28T06:21:58.249Z,5.80
2023-03-28T06:23:01.273Z,6.70
2023-03-28T06:24:04.050Z,5.40
2023-03-28T06:25:07.450Z,5.45
2023-03-28T06:26:11.020Z,3.80
2023-03-28T06:27:13.655Z,5.18
2023-03-28T06:28:18.508Z,3.95
2023-03-28T06:29:21.956Z,4.57
2023-03-28T06:30:24.649Z,5.25
2023-03-28T06:31:30.651Z,5.60
2023-03-28T06:32:33.461Z,3.45
2023-03-28T06:33:36.931Z,5.53
2023-03-28T06:34:39.816Z,4.93
2023-03-28T06:35:42.938Z,5.80
2023-03-28T06:36:45.687Z,4.97
2023-03-28T06:37:48.793Z,5.05
2023-03-28T06:38:58.589Z,6.50
2023-03-28T06:40:01.461Z,5.30
2023-03-28T06:41:04.626Z,4.43
2023-03-28T06:42:07.506Z,4.87
2023-03-28T06:43:10.143Z,7.90
2023-03-28T06:44:12.813Z,9.15
2023-03-28T06:45:15.888Z,4.68
2023-03-28T06:46:18.715Z,6.95
2023-03-28T06:47:21.657Z,5.45
2023-03-28T06:48:33.077Z,4.43
2023-03-28T06:49:37.088Z,5.18
2023-03-28T06:50:40.079Z,5.35
2023-03-28T06:51:42.847Z,4.70
2023-03-28T06:52:45.969Z,4.03
2023-03-28T06:53:48.831Z,4.85
2023-03-28T06:54:52.019Z,5.95
2023-03-28T06:55:55.861Z,6.93
2023-03-28T06:56:58.460Z,5.50
2023-03-28T06:58:01.629Z,3.50
2023-03-28T06:59:05.544Z,4.82
2023-03-28T07:00:08.963Z,4.70
2023-03-28T07:01:12.481Z,3.95
2023-03-28T07:02:15.274Z,4.28
2023-03-28T07:03:18.660Z,5.28
2023-03-28T07:04:21.837Z,5.85
2023-03-28T07:05:24.771Z,5.60
2023-03-28T07:06:28.033Z,5.03
2023-03-28T07:07:31.793Z,5.37
2023-03-28T07:08:37.038Z,4.78
2023-03-28T07:09:39.674Z,5.37
2023-03-28T07:10:43.529Z,5.22
2023-03-28T07:11:46.416Z,4.60
2023-03-28T07:12:49.227Z,4.57
2023-03-28T07:13:52.422Z,3.78
2023-03-28T07:14:55.172Z,5.15
2023-03-28T07:16:10.920Z,4.05
2023-03-28T07:17:14.342Z,5.53
2023-03-28T07:18:17.505Z,5.87
2023-03-28T07:19:20.356Z,4.20
2023-03-28T07:20:24.112Z,5.35
2023-03-28T07:21:26.839Z,4.80
2023-03-28T07:22:29.665Z,7.15
2023-03-28T07:23:32.419Z,3.87
2023-03-28T07:24:35.611Z,6.15
2023-03-28T07:25:38.632Z,3.03
2023-03-28T07:26:41.613Z,3.33
2023-03-28T07:27:44.410Z,4.50
2023-03-28T07:28:47.264Z,3.65
2023-03-28T07:29:50.116Z,4.70
2023-03-28T07:30:56.582Z,4.00
2023-03-28T07:31:59.316Z,2.30
2023-03-28T07:33:12.554Z,3.37
2023-03-28T07:34:20.498Z,4.00
2023-03-28T07:35:23.366Z,3.22
2023-03-28T07:36:28.486Z,10.15
2023-03-28T07:37:31.514Z,5.40
2023-03-28T07:38:35.391Z,3.72
2023-03-28T07:39:43.927Z,5.72
2023-03-28T07:40:46.867Z,3.12
2023-03-28T07:41:49.870Z,2.53
2023-03-28T07:42:52.734Z,4.68
2023-03-28T07:43:55.518Z,5.40
2023-03-28T07:44:58.342Z,3.78
2023-03-28T07:46:02.785Z,3.90
2023-03-28T07:47:06.147Z,1.98
2023-03-28T07:48:08.963Z,5.40
2023-03-28T07:49:12.033Z,5.07
2023-03-28T07:50:14.744Z,4.75
2023-03-28T07:51:18.617Z,4.28
2023-03-28T07:52:21.582Z,3.30
2023-03-28T07:53:24.770Z,2.92
2023-03-28T07:54:28.571Z,4.82
2023-03-28T07:55:35.145Z,4.78
2023-03-28T07:56:48.663Z,6.53
2023-03-28T07:57:51.683Z,4.18
2023-03-28T07:58:55.187Z,3.87
2023-03-28T07:59:58.053Z,5.35
2023-03-28T08:01:08.422Z,5.00
2023-03-28T08:02:15.986Z,2.92
2023-03-28T08:03:19.327Z,2.78
2023-03-28T08:04:22.468Z,1.80
2023-03-28T08:05:26.635Z,4.60
2023-03-28T08:06:32.469Z,3.12
2023-03-28T08:07:42.321Z,4.45
2023-03-28T08:08:45.507Z,2.50
2023-03-28T08:09:51.368Z,6.57
2023-03-28T08:10:54.150Z,2.42
2023-03-28T08:11:56.886Z,2.85
2023-03-28T08:12:59.702Z,8.57
2023-03-28T08:14:03.701Z,1.83
2023-03-28T08:15:07.538Z,3.08
2023-03-28T08:16:10.714Z,4.53
2023-03-28T08:17:14.840Z,2.03
2023-03-28T08:18:21.660Z,3.05
2023-03-28T08:19:24.545Z,5.00
2023-03-28T08:20:27.463Z,3.90
2023-03-28T08:21:31.897Z,2.40
2023-03-28T08:22:34.614Z,2.58
2023-03-28T08:23:39.530Z,2.28
2023-03-28T08:24:43.872Z,2.12
2023-03-28T08:25:49.143Z,2.55
2023-03-28T08:26:52.376Z,3.33
2023-03-28T08:27:55.232Z,3.72
2023-03-28T08:28:59.168Z,2.37
2023-03-28T08:30:02.278Z,2.65
2023-03-28T08:31:14.507Z,3.28
2023-03-28T08:32:17.515Z,4.03
2023-03-28T08:33:21.046Z,4.15
2023-03-28T08:34:24.194Z,1.65
2023-03-28T08:35:27.349Z,3.87
2023-03-28T08:36:31.376Z,2.08
2023-03-28T08:37:34.376Z,2.17
2023-03-28T08:38:37.480Z,2.33
2023-03-28T08:39:42.881Z,3.22
2023-03-28T08:41:02.895Z,3.28
2023-03-28T08:42:12.128Z,2.10
2023-03-28T08:43:45.872Z,1.70
2023-03-28T08:44:57.905Z,4.70
2023-03-28T08:46:01.528Z,3.00
2023-03-28T08:47:12.669Z,1.60
2023-03-28T08:48:18.185Z,3.47
2023-03-28T08:49:21.181Z,1.98
2023-03-28T08:50:59.831Z,1.98
2023-03-28T08:52:05.720Z,2.12
2023-03-28T08:53:19.813Z,3.03
2023-03-28T08:54:37.404Z,1.83
2023-03-28T08:55:43.562Z,2.33
2023-03-28T08:56:53.684Z,2.85
2023-03-28T08:57:58.234Z,2.20
2023-03-28T08:59:11.315Z,3.28
2023-03-28T09:00:24.205Z,2.17
2023-03-28T09:01:29.704Z,2.37
2023-03-28T09:02:33.030Z,2.62
2023-03-28T09:03:36.604Z,3.58
2023-03-28T09:04:39.623Z,2.33
2023-03-28T09:05:46.515Z,2.20
2023-03-28T09:06:52.976Z,3.72
2023-03-28T09:08:09.261Z,2.60
2023-03-28T09:09:46.211Z,0.98
2023-03-28T09:11:23.267Z,3.05
2023-03-28T09:12:35.657Z,2.47
2023-03-28T09:13:56.611Z,0.70
2023-03-28T09:15:34.384Z,1.48
2023-03-28T09:16:43.164Z,3.00
2023-03-28T09:18:11.411Z,7.00
2023-03-28T09:19:17.147Z,3.60
2023-03-28T09:20:27.456Z,4.20
2023-03-28T09:22:12.409Z,1.37
2023-03-28T09:23:26.793Z,1.08
2023-03-28T09:25:55.590Z,3.80
2023-03-28T09:27:25.367Z,0.98
2023-03-28T09:28:37.756Z,2.08
2023-03-28T09:29:43.381Z,2.03
2023-03-28T09:30:50.994Z,0.80
2023-03-28T09:32:03.548Z,3.05
2023-03-28T09:33:14.101Z,3.08
2023-03-28T09:34:42.516Z,1.45
2023-03-28T09:35:47.270Z,1.62
2023-03-28T09:36:55.535Z,1.60
2023-03-28T09:38:10.315Z,2.85
2023-03-28T09:39:30.536Z,1.80
2023-03-28T09:40:35.780Z,0.80
2023-03-28T09:41:56.407Z,1.20
2023-03-28T09:43:29.903Z,0.80
2023-03-28T09:44:53.581Z,1.77
2023-03-28T09:46:03.355Z,2.05
2023-03-28T09:47:12.831Z,2.25
2023-03-28T09:48:37.086Z,1.00
2023-03-28T09:49:40.616Z,2.37
2023-03-28T09:50:43.428Z,0.85
2023-03-28T09:51:47.066Z,2.60
2023-03-28T09:52:53.494Z,1.10
2023-03-28T09:53:57.458Z,2.22
2023-03-28T09:55:01.058Z,2.92
2023-03-28T09:56:36.227Z,3.75
2023-03-28T09:58:06.366Z,1.00
2023-03-28T09:59:27.008Z,3.47
2023-03-28T10:00:48.374Z,2.12
2023-03-28T10:01:52.998Z,0.95
2023-03-28T10:02:56.365Z,0.98
2023-03-28T10:04:00.623Z,2.60
2023-03-28T10:05:06.135Z,2.20
2023-03-28T10:06:32.255Z,1.17
2023-03-28T10:07:44.308Z,0.90
2023-03-28T10:08:47.756Z,1.77
2023-03-28T10:09:57.122Z,1.15
2023-03-28T10:11:07.177Z,4.40
2023-03-28T10:12:11.196Z,1.02
2023-03-28T10:13:14.241Z,2.08
2023-03-28T10:14:33.660Z,1.90
2023-03-28T10:15:41.581Z,1.15
2023-03-28T10:16:45.600Z,1.20
2023-03-28T10:17:51.043Z,2.33
2023-03-28T10:18:54.515Z,0.80
2023-03-28T10:20:15.539Z,1.73
2023-03-28T10:21:24.203Z,1.85
2023-03-28T10:22:32.142Z,2.15
2023-03-28T10:23:35.068Z,1.12
2023-03-28T10:24:40.126Z,2.87
2023-03-28T10:25:46.547Z,0.80
2023-03-28T10:26:49.574Z,0.82
2023-03-28T10:27:53.086Z,0.82
2023-03-28T10:29:03.087Z,0.98
2023-03-28T10:30:27.061Z,1.00
2023-03-28T10:31:34.228Z,1.58
2023-03-28T10:32:37.182Z,1.45
2023-03-28T10:33:44.092Z,2.70
2023-03-28T10:35:00.959Z,0.70
2023-03-28T10:36:11.283Z,2.97
2023-03-28T10:37:32.078Z,1.87
2023-03-28T10:38:44.384Z,3.30
2023-03-28T10:39:58.742Z,2.47
2023-03-28T10:41:11.765Z,2.00
2023-03-28T10:42:15.056Z,4.57
2023-03-28T10:43:18.181Z,1.75
2023-03-28T10:44:28.627Z,1.87
2023-03-28T10:45:41.919Z,2.45
2023-03-28T10:46:44.717Z,1.85
2023-03-28T10:47:51.898Z,2.53
2023-03-28T10:49:02.223Z,1.58
2023-03-28T10:50:07.544Z,2.00
2023-03-28T10:51:18.684Z,2.50
2023-03-28T10:52:33.626Z,0.70
2023-03-28T10:53:41.295Z,5.47
2023-03-28T10:55:04.866Z,1.30
2023-03-28T10:56:38.939Z,4.07
2023-03-28T10:58:06.339Z,0.77
2023-03-28T10:59:20.059Z,2.70
2023-03-28T11:00:32.010Z,2.75
2023-03-28T11:01:49.921Z,0.93
2023-03-28T11:03:07.667Z,1.70
2023-03-28T11:04:45.876Z,0.95
2023-03-28T11:06:08.565Z,2.83
2023-03-28T11:07:41.653Z,1.75
2023-03-28T11:09:07.738Z,3.33
2023-03-28T11:10:15.145Z,3.33
2023-03-28T11:11:36.826Z,2.95
2023-03-28T11:13:22.018Z,2.65
2023-03-28T11:15:01.478Z,1.33
2023-03-28T11:16:19.096Z,2.25
2023-03-28T11:17:40.669Z,2.67
2023-03-28T11:18:52.958Z,2.20
2023-03-28T11:20:17.866Z,1.42
2023-03-28T11:21:45.465Z,1.25
2023-03-28T11:23:04.703Z,1.70
2023-03-28T11:24:26.060Z,1.20
2023-03-28T11:25:56.148Z,1.10
2023-03-28T11:27:19.258Z,3.90
2023-03-28T11:28:35.556Z,1.95
2023-03-28T11:29:44.398Z,2.72
2023-03-28T11:30:53.023Z,3.35
2023-03-28T11:32:27.527Z,0.70
2023-03-28T11:33:49.972Z,1.98
2023-03-28T11:35:18.739Z,2.37
2023-03-28T11:36:53.581Z,1.40
2023-03-28T11:38:01.213Z,6.43
2023-03-28T11:39:44.890Z,1.12
2023-03-28T11:41:00.730Z,1.70
2023-03-28T11:42:20.992Z,1.08
2023-03-28T11:43:34.670Z,0.80
2023-03-28T11:44:49.260Z,0.65
2023-03-28T11:45:58.486Z,1.55
2023-03-28T11:47:22.864Z,1.08
2023-03-28T11:48:31.323Z,1.10
2023-03-28T11:49:52.365Z,0.70
2023-03-28T11:51:25.681Z,1.60
2023-03-28T11:52:55.461Z,1.00
2023-03-28T11:54:07.650Z,1.05
2023-03-28T11:55:16.208Z,1.65
2023-03-28T11:56:21.699Z,0.80
2023-03-28T11:57:33.801Z,2.03
2023-03-28T11:58:42.432Z,1.20
2023-03-28T12:00:14.837Z,0.82
2023-03-28T12:01:27.311Z,0.93
2023-03-28T12:02:30.387Z,1.87
2023-03-28T12:04:02.983Z,1.50
2023-03-28T12:05:23.120Z,1.55
2023-03-28T12:06:59.517Z,0.82
2023-03-28T12:08:20.470Z,2.12
2023-03-28T12:09:37.629Z,0.80
2023-03-28T12:10:43.836Z,1.02
2023-03-28T12:11:46.748Z,0.70
2023-03-28T12:12:55.903Z,1.23
2023-03-28T12:14:12.086Z,3.22
2023-03-28T12:15:35.747Z,0.80
2023-03-28T12:16:44.303Z,1.17
2023-03-28T12:17:54.765Z,1.20
2023-03-28T12:19:01.671Z,1.95
2023-03-28T12:20:13.244Z,0.47
2023-03-28T12:21:43.411Z,0.60
2023-03-28T12:22:54.332Z,1.52
2023-03-28T12:24:13.971Z,0.60
2023-03-28T12:25:29.662Z,4.05
2023-03-28T12:27:02.228Z,0.85
2023-03-28T12:28:05.142Z,0.60
2023-03-28T12:29:28.252Z,1.95
2023-03-28T12:30:49.175Z,3.22
2023-03-28T12:32:00.434Z,0.62
2023-03-28T12:33:22.899Z,1.00
2023-03-28T12:34:33.686Z,0.80
2023-03-28T12:35:44.046Z,0.98
2023-03-28T12:37:04.291Z,2.50
2023-03-28T12:38:22.455Z,0.70
2023-03-28T12:39:37.361Z,2.08
2023-03-28T12:40:49.532Z,0.73
2023-03-28T12:41:54.156Z,1.37
2023-03-28T12:42:59.418Z,0.82
2023-03-28T12:44:19.241Z,0.75
2023-03-28T12:45:45.740Z,0.50
2023-03-28T12:46:57.546Z,0.47
2023-03-28T12:48:13.579Z,1.58
2023-03-28T12:49:52.022Z,0.50
2023-03-28T12:51:20.997Z,0.60
2023-03-28T12:52:25.818Z,1.05
2023-03-28T12:53:32.305Z,0.62
2023-03-28T12:54:53.186Z,1.00
2023-03-28T12:55:56.104Z,1.25
2023-03-28T12:57:03.581Z,1.60
2023-03-28T12:58:21.274Z,2.83
2023-03-28T12:59:48.310Z,1.25
2023-03-28T13:01:09.346Z,0.60
2023-03-28T13:02:22.202Z,0.57
2023-03-28T13:04:01.813Z,0.98
2023-03-28T13:05:15.988Z,0.65
2023-03-28T13:06:56.481Z,0.60
2023-03-28T13:08:24.516Z,1.00
2023-03-28T13:09:36.290Z,0.50
2023-03-28T13:10:42.103Z,0.45
2023-03-28T13:11:57.198Z,0.82
2023-03-28T13:13:06.592Z,0.60
2023-03-28T13:14:15.182Z,0.88
2023-03-28T13:15:20.987Z,0.80
2023-03-28T13:16:43.639Z,1.95
2023-03-28T13:18:07.632Z,0.60
2023-03-28T13:19:13.223Z,0.82
2023-03-28T13:20:19.013Z,3.12
2023-03-28T13:21:43.237Z,1.70
2023-03-28T13:23:05.059Z,1.48
2023-03-28T13:24:36.205Z,1.87
2023-03-28T13:25:39.644Z,4.65
2023-03-28T13:27:12.466Z,5.60
2023-03-28T13:28:18.146Z,4.47
2023-03-28T13:29:21.169Z,11.00
2023-03-28T13:30:27.823Z,6.70
2023-03-28T13:31:32.961Z,2.47
2023-03-28T13:32:43.726Z,2.62
2023-03-28T13:33:50.149Z,3.78
2023-03-28T13:34:56.880Z,2.42
2023-03-28T13:35:59.714Z,1.40
2023-03-28T13:37:22.931Z,8.88
2023-03-28T13:38:29.633Z,1.60
2023-03-28T13:39:33.660Z,5.47
2023-03-28T13:40:45.665Z,3.17
2023-03-28T13:41:48.353Z,6.25
2023-03-28T13:43:00.489Z,10.10
2023-03-28T13:44:12.670Z,11.63
2023-03-28T13:45:23.329Z,2.25
2023-03-28T13:46:32.283Z,7.50
2023-03-28T13:47:41.244Z,6.85
2023-03-28T13:48:56.529Z,5.40
2023-03-28T13:50:04.279Z,2.97
2023-03-28T13:51:14.290Z,4.93
2023-03-28T13:52:23.262Z,5.30
2023-03-28T13:53:32.114Z,8.73
2023-03-28T13:54:43.959Z,0.80
2023-03-28T13:55:47.160Z,4.43
2023-03-28T13:56:52.213Z,1.17
2023-03-28T13:57:55.139Z,4.15
2023-03-28T13:59:02.137Z,4.07
2023-03-28T14:00:07.076Z,2.05
2023-03-28T14:01:16.991Z,1.45
2023-03-28T14:02:21.671Z,3.65
2023-03-28T14:03:26.132Z,2.78
2023-03-28T14:04:35.452Z,2.70
2023-03-28T14:05:46.454Z,4.10
2023-03-28T14:06:51.424Z,1.67
2023-03-28T14:07:56.217Z,2.80
2023-03-28T14:09:02.465Z,1.08
2023-03-28T14:10:21.814Z,1.48
2023-03-28T14:11:31.940Z,1.27
2023-03-28T14:12:36.088Z,5.18
2023-03-28T14:13:39.364Z,1.33
2023-03-28T14:14:46.226Z,2.40
2023-03-28T14:15:52.822Z,0.90
2023-03-28T14:16:56.989Z,2.65
2023-03-28T14:18:01.303Z,3.78
2023-03-28T14:19:06.998Z,0.88
2023-03-28T14:20:17.684Z,1.23
2023-03-28T14:21:26.930Z,0.70
2023-03-28T14:22:32.202Z,2.35
2023-03-28T14:23:38.313Z,2.10
2023-03-28T14:24:41.073Z,2.80
2023-03-28T14:25:43.959Z,1.65
2023-03-28T14:26:47.800Z,7.15
2023-03-28T14:27:53.733Z,3.00
2023-03-28T14:29:07.437Z,0.60
2023-03-28T14:30:32.189Z,1.60
2023-03-28T14:31:38.755Z,0.80
2023-03-28T14:33:14.345Z,0.98
2023-03-28T14:34:21.606Z,1.17
2023-03-28T14:35:35.570Z,3.05
2023-03-28T14:36:58.722Z,2.65
2023-03-28T14:38:04.717Z,0.65
2023-03-28T14:39:14.034Z,2.55
2023-03-28T14:40:21.821Z,0.60
2023-03-28T14:41:29.570Z,1.90
2023-03-28T14:42:33.249Z,7.95
2023-03-28T14:43:37.201Z,1.08
2023-03-28T14:44:43.569Z,4.47
2023-03-28T14:45:52.762Z,4.07
2023-03-28T14:47:00.179Z,0.50
2023-03-28T14:48:06.812Z,2.85
2023-03-28T14:49:23.818Z,0.65
2023-03-28T14:50:35.235Z,0.90
2023-03-28T14:51:44.720Z,1.77
2023-03-28T14:52:48.775Z,1.20
2023-03-28T14:53:52.281Z,0.93
2023-03-28T14:54:56.247Z,1.27
2023-03-28T14:56:10.042Z,1.45
2023-03-28T14:57:18.407Z,2.37
2023-03-28T14:58:24.165Z,0.77
2023-03-28T14:59:49.077Z,1.10
2023-03-28T15:01:01.191Z,2.33
2023-03-28T15:02:37.359Z,0.75
2023-03-28T15:04:05.438Z,4.93
2023-03-28T15:05:28.119Z,4.15
2023-03-28T15:06:55.990Z,2.15
2023-03-28T15:08:34.598Z,1.12
2023-03-28T15:10:09.234Z,1.20
2023-03-28T15:11:37.378Z,1.20
2023-03-28T15:13:14.368Z,1.58
2023-03-28T15:14:45.932Z,2.35
2023-03-28T15:16:09.526Z,1.77
2023-03-28T15:17:36.256Z,0.85
2023-03-28T15:18:47.239Z,1.33
2023-03-28T15:19:56.128Z,1.95
2023-03-28T15:21:02.663Z,2.15
2023-03-28T15:22:30.416Z,1.70
2023-03-28T15:23:40.192Z,1.40
2023-03-28T15:24:44.734Z,2.62
2023-03-28T15:25:47.587Z,1.85
2023-03-28T15:26:53.859Z,3.12
2023-03-28T15:28:02.949Z,3.22
2023-03-28T15:29:07.729Z,1.75
2023-03-28T15:30:18.690Z,2.83
2023-03-28T15:31:22.744Z,3.53